STAZIONE AMATORIALE METEOROLOGICA DI VILLALVERNIA
Centro raccolta dati meteo



Villalvernia CAM SSO more information Villalvernia CAM SSO


Villalvernia CAM NNO more information Villalvernia CAM NNO


Visit our other weather sites:

Meteo Live Pozzolo
Formigaro

Meteo Tortona Live


You find our weather info also at:

Weather Underground

AWEKAS

Citizen Weather Observer Program (CWOP)

HAMweather, WeatherForYou, PWS Weather



Nearby METAR Reports

   
LIMJ - Genova/Sestri, Italy
Distance from station: SSE 55 km
Updated: 13-12-2018 01:20
Mostly Cloudy  
Mostly Cloudy  
   Wind: NE 20.4 km/h
Wind: NE 20.4 km/h
Temperature: 7°C
Wind Chill: 3°C
Dew Point: -4°C
Humidity: 46%
Barometer: 1016 hPa
Clouds: Mostly Cloudy
Visibility: More than 10 km
Cloud details: Mostly Cloudy 1981.2 m
LIMJ 130020Z 05011KT 9999 BKN065 07/M04 Q1016
LIMC - Milano/Malpensa, Italy
Distance from station: N 87 km
Updated: 13-12-2018 01:20
Clear  
Clear  
   Wind: NE 9.3 km/h
Wind: NE 9.3 km/h
Temperature: 0°C
Wind Chill: -3°C
Dew Point: -6°C
Humidity: 64%
Barometer: 1017 hPa
Visibility: More than 10 km
Cloud details: Clear
LIMC 130020Z 04005KT CAVOK M00/M06 Q1017 NOSIG
LIML - Milano/Linate, Italy
Distance from station: NE 91 km
Updated: 13-12-2018 01:20
Mostly Cloudy  
Mostly Cloudy  
   Wind: NE 7.4 km/h
Wind: NE 7.4 km/h
Temperature: 2°C
Wind Chill: 0°C
Dew Point: -4°C
Humidity: 65%
Barometer: 1018 hPa
Clouds: Mostly Cloudy
Visibility: More than 10 km
Cloud details: Mostly Cloudy 2438.4 m
LIML 130020Z 05004KT 9999 BKN080 02/M04 Q1018 NOSIG
LIMV - Giovi Pass, Italy
Distance from station: SE 46 km
Updated: 12-12-2018 12:55
NOT Current
Mostly Cloudy  
Mostly Cloudy  
   Wind: varies Calm
Wind: varies Calm
Temperature: 4°C
Dew Point: -4°C
Humidity: 56%
Barometer: 1018 hPa
Clouds: Mostly Cloudy
Visibility: More than 10 km
Cloud details: Mostly Cloudy 609.6 m
LIMV 121155Z /////KT 9999 BKN020 04/M04 Q1018
LIME - Bergamo/Orio Ser, Italy
Distance from station: NE 129 km
Updated: 13-12-2018 01:20
Clear  
Clear  
   Wind: North 7.4 km/h
Wind: North 7.4 km/h
Temperature: 0°C
Wind Chill: -3°C
Dew Point: -7°C
Humidity: 60%
Barometer: 1017 hPa
Visibility: More than 10 km
Cloud details: Clear
LIME 130020Z 36004KT CAVOK M00/M07 Q1017 NOSIG
LIRF - Rome/Fiumicino, Italy
Distance from station: ESE 7 km
Updated: 13-12-2018 01:20
Few Clouds  
Few Clouds  
   Wind: ENE 13 km/h
Wind: ENE 13 km/h
Temperature: 8°C
Wind Chill: 6°C
Dew Point: -2°C
Humidity: 50%
Barometer: 1015 hPa
Clouds: Few Clouds
Visibility: More than 10 km
Cloud details: Few Clouds 1524 m
LIRF 130020Z 06007KT 9999 FEW050 08/M02 Q1015 NOSIG
LIRA - Ciampino(It-Afb/, Italy
Distance from station: E 37 km
Updated: 13-12-2018 01:20
Clear  
Clear  
   Wind: East 13 km/h
Wind: East 13 km/h
Temperature: 9°C
Wind Chill: 7°C
Dew Point: -2°C
Humidity: 46%
Barometer: 1015 hPa
Visibility: More than 10 km
Cloud details: Clear
LIRA 130020Z 09007KT CAVOK 09/M02 Q1015
  

Script developed by  Saratoga-weather.org Adapted for the template by  Weerstation Leuven